sensor_id;sensor_type;location;lat;lon;timestamp;temperature;humidity
78904;DHT22;68291;49.602;8.722;2023-10-09T00:01:04;14.40;99.90
78904;DHT22;68291;49.602;8.722;2023-10-09T00:03:52;14.40;99.90
78904;DHT22;68291;49.602;8.722;2023-10-09T00:06:55;14.40;99.90
78904;DHT22;68291;49.602;8.722;2023-10-09T00:09:57;14.30;99.90
78904;DHT22;68291;49.602;8.722;2023-10-09T00:13:14;14.30;99.90
78904;DHT22;68291;49.602;8.722;2023-10-09T00:16:14;14.30;99.90
78904;DHT22;68291;49.602;8.722;2023-10-09T00:19:19;14.30;99.90
78904;DHT22;68291;49.602;8.722;2023-10-09T00:22:00;14.30;99.90
78904;DHT22;68291;49.602;8.722;2023-10-09T00:24:49;14.30;99.90
78904;DHT22;68291;49.602;8.722;2023-10-09T00:27:40;14.30;99.90
78904;DHT22;68291;49.602;8.722;2023-10-09T00:30:59;14.30;99.90
78904;DHT22;68291;49.602;8.722;2023-10-09T00:33:50;14.30;99.90
78904;DHT22;68291;49.602;8.722;2023-10-09T00:36:36;14.40;99.90
78904;DHT22;68291;49.602;8.722;2023-10-09T00:39:22;14.40;99.90
78904;DHT22;68291;49.602;8.722;2023-10-09T00:42:59;14.40;99.90
78904;DHT22;68291;49.602;8.722;2023-10-09T00:46:08;14.40;99.90
78904;DHT22;68291;49.602;8.722;2023-10-09T00:49:19;14.40;99.90
78904;DHT22;68291;49.602;8.722;2023-10-09T00:52:14;14.40;99.90
78904;DHT22;68291;49.602;8.722;2023-10-09T00:55:00;14.40;99.90
78904;DHT22;68291;49.602;8.722;2023-10-09T00:57:56;14.40;99.90
78904;DHT22;68291;49.602;8.722;2023-10-09T01:00:42;14.40;99.90
78904;DHT22;68291;49.602;8.722;2023-10-09T01:04:07;14.40;99.90
78904;DHT22;68291;49.602;8.722;2023-10-09T01:06:46;14.40;99.90
78904;DHT22;68291;49.602;8.722;2023-10-09T01:09:44;14.50;99.90
78904;DHT22;68291;49.602;8.722;2023-10-09T01:13:02;14.50;99.90
78904;DHT22;68291;49.602;8.722;2023-10-09T01:15:51;14.50;99.90
78904;DHT22;68291;49.602;8.722;2023-10-09T01:22:13;14.50;99.90
78904;DHT22;68291;49.602;8.722;2023-10-09T01:24:59;14.50;99.90
78904;DHT22;68291;49.602;8.722;2023-10-09T01:27:51;14.50;99.90
78904;DHT22;68291;49.602;8.722;2023-10-09T01:30:49;14.50;99.90
78904;DHT22;68291;49.602;8.722;2023-10-09T01:33:43;14.60;99.90
78904;DHT22;68291;49.602;8.722;2023-10-09T01:36:22;14.50;99.90
78904;DHT22;68291;49.602;8.722;2023-10-09T01:39:05;14.50;99.90
78904;DHT22;68291;49.602;8.722;2023-10-09T01:42:25;14.60;99.90
78904;DHT22;68291;49.602;8.722;2023-10-09T01:45:31;14.60;99.90
78904;DHT22;68291;49.602;8.722;2023-10-09T01:48:30;14.60;99.90
78904;DHT22;68291;49.602;8.722;2023-10-09T01:51:31;14.60;99.90
78904;DHT22;68291;49.602;8.722;2023-10-09T01:54:11;14.60;99.90
78904;DHT22;68291;49.602;8.722;2023-10-09T01:57:51;14.60;99.90
78904;DHT22;68291;49.602;8.722;2023-10-09T02:00:28;14.60;99.90
78904;DHT22;68291;49.602;8.722;2023-10-09T02:03:17;14.60;99.90
78904;DHT22;68291;49.602;8.722;2023-10-09T02:05:55;14.60;99.90
78904;DHT22;68291;49.602;8.722;2023-10-09T02:08:45;14.60;99.90
78904;DHT22;68291;49.602;8.722;2023-10-09T02:11:25;14.60;99.90
78904;DHT22;68291;49.602;8.722;2023-10-09T02:14:28;14.60;99.90
78904;DHT22;68291;49.602;8.722;2023-10-09T02:17:19;14.60;99.90
78904;DHT22;68291;49.602;8.722;2023-10-09T02:20:16;14.60;99.90
78904;DHT22;68291;49.602;8.722;2023-10-09T02:23:16;14.60;99.90
78904;DHT22;68291;49.602;8.722;2023-10-09T02:26:22;14.70;99.90
78904;DHT22;68291;49.602;8.722;2023-10-09T02:28:56;14.70;99.90
78904;DHT22;68291;49.602;8.722;2023-10-09T02:31:43;14.70;99.90
78904;DHT22;68291;49.602;8.722;2023-10-09T02:34:16;14.70;99.90
78904;DHT22;68291;49.602;8.722;2023-10-09T02:36:51;14.70;99.90
78904;DHT22;68291;49.602;8.722;2023-10-09T02:39:49;14.70;99.90
78904;DHT22;68291;49.602;8.722;2023-10-09T02:42:25;14.70;99.90
78904;DHT22;68291;49.602;8.722;2023-10-09T02:45:07;14.70;99.90
78904;DHT22;68291;49.602;8.722;2023-10-09T02:51:11;14.60;99.90
78904;DHT22;68291;49.602;8.722;2023-10-09T02:54:27;14.70;99.90
78904;DHT22;68291;49.602;8.722;2023-10-09T02:57:13;14.60;99.90
78904;DHT22;68291;49.602;8.722;2023-10-09T02:59:54;14.60;99.90
78904;DHT22;68291;49.602;8.722;2023-10-09T03:02:40;14.60;99.90
78904;DHT22;68291;49.602;8.722;2023-10-09T03:05:27;14.60;99.90
78904;DHT22;68291;49.602;8.722;2023-10-09T03:08:32;14.60;99.90
78904;DHT22;68291;49.602;8.722;2023-10-09T03:11:14;14.60;99.90
78904;DHT22;68291;49.602;8.722;2023-10-09T03:14:19;14.50;99.90
78904;DHT22;68291;49.602;8.722;2023-10-09T03:16:56;14.50;99.90
78904;DHT22;68291;49.602;8.722;2023-10-09T03:19:53;14.50;99.90
78904;DHT22;68291;49.602;8.722;2023-10-09T03:22:58;14.40;99.90
78904;DHT22;68291;49.602;8.722;2023-10-09T03:26:02;14.40;99.90
78904;DHT22;68291;49.602;8.722;2023-10-09T03:29:18;14.40;99.90
78904;DHT22;68291;49.602;8.722;2023-10-09T03:32:07;14.30;99.90
78904;DHT22;68291;49.602;8.722;2023-10-09T03:34:56;14.30;99.90
78904;DHT22;68291;49.602;8.722;2023-10-09T03:37:32;14.30;99.90
78904;DHT22;68291;49.602;8.722;2023-10-09T03:40:24;14.20;99.90
78904;DHT22;68291;49.602;8.722;2023-10-09T03:43:18;14.20;99.90
78904;DHT22;68291;49.602;8.722;2023-10-09T03:46:18;14.20;99.90
78904;DHT22;68291;49.602;8.722;2023-10-09T03:49:23;14.20;99.90
78904;DHT22;68291;49.602;8.722;2023-10-09T03:52:02;14.10;99.90
78904;DHT22;68291;49.602;8.722;2023-10-09T03:54:48;14.10;99.90
78904;DHT22;68291;49.602;8.722;2023-10-09T03:57:31;14.10;99.90
78904;DHT22;68291;49.602;8.722;2023-10-09T04:00:03;14.10;99.90
78904;DHT22;68291;49.602;8.722;2023-10-09T04:03:06;14.20;99.90
78904;DHT22;68291;49.602;8.722;2023-10-09T04:05:41;14.10;99.90
78904;DHT22;68291;49.602;8.722;2023-10-09T04:08:19;14.20;99.90
78904;DHT22;68291;49.602;8.722;2023-10-09T04:10:59;14.20;99.90
78904;DHT22;68291;49.602;8.722;2023-10-09T04:17:26;14.20;99.90
78904;DHT22;68291;49.602;8.722;2023-10-09T04:20:12;14.10;99.90
78904;DHT22;68291;49.602;8.722;2023-10-09T04:23:03;14.10;99.90
78904;DHT22;68291;49.602;8.722;2023-10-09T04:25:48;14.10;99.90
78904;DHT22;68291;49.602;8.722;2023-10-09T04:28:48;14.10;99.90
78904;DHT22;68291;49.602;8.722;2023-10-09T04:31:25;14.10;99.90
78904;DHT22;68291;49.602;8.722;2023-10-09T04:34:07;14.10;99.90
78904;DHT22;68291;49.602;8.722;2023-10-09T04:37:17;14.10;99.90
78904;DHT22;68291;49.602;8.722;2023-10-09T04:40:00;14.10;99.90
78904;DHT22;68291;49.602;8.722;2023-10-09T04:42:43;14.10;99.90
78904;DHT22;68291;49.602;8.722;2023-10-09T04:45:59;14.10;99.90
78904;DHT22;68291;49.602;8.722;2023-10-09T04:51:58;14.10;99.90
78904;DHT22;68291;49.602;8.722;2023-10-09T04:54:58;14.10;99.90
78904;DHT22;68291;49.602;8.722;2023-10-09T04:58:10;14.00;99.90
78904;DHT22;68291;49.602;8.722;2023-10-09T05:01:22;14.10;99.90
78904;DHT22;68291;49.602;8.722;2023-10-09T05:04:06;14.10;99.90
78904;DHT22;68291;49.602;8.722;2023-10-09T05:06:58;14.10;99.90
78904;DHT22;68291;49.602;8.722;2023-10-09T05:10:05;14.10;99.90
78904;DHT22;68291;49.602;8.722;2023-10-09T05:13:01;14.10;99.90
78904;DHT22;68291;49.602;8.722;2023-10-09T05:16:00;14.10;99.90
78904;DHT22;68291;49.602;8.722;2023-10-09T05:19:03;14.10;99.90
78904;DHT22;68291;49.602;8.722;2023-10-09T05:22:18;14.10;99.90
78904;DHT22;68291;49.602;8.722;2023-10-09T05:25:05;14.20;99.90
78904;DHT22;68291;49.602;8.722;2023-10-09T05:28:09;14.20;99.90
78904;DHT22;68291;49.602;8.722;2023-10-09T05:31:19;14.20;99.90
78904;DHT22;68291;49.602;8.722;2023-10-09T05:34:37;14.20;99.90
78904;DHT22;68291;49.602;8.722;2023-10-09T05:41:13;14.10;99.90
78904;DHT22;68291;49.602;8.722;2023-10-09T05:44:19;14.10;99.90
78904;DHT22;68291;49.602;8.722;2023-10-09T05:47:17;14.10;99.90
78904;DHT22;68291;49.602;8.722;2023-10-09T05:50:37;14.10;99.90
78904;DHT22;68291;49.602;8.722;2023-10-09T05:57:10;14.20;99.90
78904;DHT22;68291;49.602;8.722;2023-10-09T05:59:57;14.20;99.90
78904;DHT22;68291;49.602;8.722;2023-10-09T06:02:47;14.20;99.90
78904;DHT22;68291;49.602;8.722;2023-10-09T06:05:54;14.20;99.90
78904;DHT22;68291;49.602;8.722;2023-10-09T06:08:38;14.30;99.90
78904;DHT22;68291;49.602;8.722;2023-10-09T06:11:49;14.30;99.90
78904;DHT22;68291;49.602;8.722;2023-10-09T06:14:44;14.30;99.90
78904;DHT22;68291;49.602;8.722;2023-10-09T06:17:49;14.30;99.90
78904;DHT22;68291;49.602;8.722;2023-10-09T06:20:45;14.40;99.90
78904;DHT22;68291;49.602;8.722;2023-10-09T06:23:57;14.40;99.90
78904;DHT22;68291;49.602;8.722;2023-10-09T06:30:30;14.50;99.90
78904;DHT22;68291;49.602;8.722;2023-10-09T06:33:26;14.50;99.90
78904;DHT22;68291;49.602;8.722;2023-10-09T06:36:19;14.50;99.90
78904;DHT22;68291;49.602;8.722;2023-10-09T06:39:10;14.60;99.90
78904;DHT22;68291;49.602;8.722;2023-10-09T06:42:01;14.60;99.90
78904;DHT22;68291;49.602;8.722;2023-10-09T06:45:19;14.60;99.90
78904;DHT22;68291;49.602;8.722;2023-10-09T06:48:13;14.60;99.90
78904;DHT22;68291;49.602;8.722;2023-10-09T06:51:08;14.70;99.90
78904;DHT22;68291;49.602;8.722;2023-10-09T06:53:55;14.70;99.90
78904;DHT22;68291;49.602;8.722;2023-10-09T06:56:54;14.80;99.90
78904;DHT22;68291;49.602;8.722;2023-10-09T07:00:10;14.80;99.90
78904;DHT22;68291;49.602;8.722;2023-10-09T07:03:15;14.90;99.90
78904;DHT22;68291;49.602;8.722;2023-10-09T07:05:52;15.00;99.90
78904;DHT22;68291;49.602;8.722;2023-10-09T07:08:55;15.00;99.90
78904;DHT22;68291;49.602;8.722;2023-10-09T07:11:46;15.10;99.90
78904;DHT22;68291;49.602;8.722;2023-10-09T07:14:34;15.20;99.90
78904;DHT22;68291;49.602;8.722;2023-10-09T07:17:27;15.30;99.90
78904;DHT22;68291;49.602;8.722;2023-10-09T07:20:22;15.40;99.90
78904;DHT22;68291;49.602;8.722;2023-10-09T07:23:13;15.40;99.90
78904;DHT22;68291;49.602;8.722;2023-10-09T07:26:20;15.50;99.90
78904;DHT22;68291;49.602;8.722;2023-10-09T07:29:13;15.60;99.90
78904;DHT22;68291;49.602;8.722;2023-10-09T07:32:07;15.70;99.90
78904;DHT22;68291;49.602;8.722;2023-10-09T07:35:14;15.70;99.90
78904;DHT22;68291;49.602;8.722;2023-10-09T07:38:48;15.80;99.90
78904;DHT22;68291;49.602;8.722;2023-10-09T07:41:33;15.90;99.90
78904;DHT22;68291;49.602;8.722;2023-10-09T07:44:11;15.90;99.90
78904;DHT22;68291;49.602;8.722;2023-10-09T07:47:05;16.00;99.90
78904;DHT22;68291;49.602;8.722;2023-10-09T07:50:10;16.00;99.90
78904;DHT22;68291;49.602;8.722;2023-10-09T07:53:02;16.10;99.90
78904;DHT22;68291;49.602;8.722;2023-10-09T07:56:05;16.10;99.90
78904;DHT22;68291;49.602;8.722;2023-10-09T07:58:44;16.20;99.90
78904;DHT22;68291;49.602;8.722;2023-10-09T08:01:24;16.20;99.90
78904;DHT22;68291;49.602;8.722;2023-10-09T08:04:11;16.30;99.90
78904;DHT22;68291;49.602;8.722;2023-10-09T08:06:57;16.30;99.90
78904;DHT22;68291;49.602;8.722;2023-10-09T08:10:23;16.40;99.90
78904;DHT22;68291;49.602;8.722;2023-10-09T08:16:50;16.40;99.90
78904;DHT22;68291;49.602;8.722;2023-10-09T08:20:05;16.50;99.90
78904;DHT22;68291;49.602;8.722;2023-10-09T08:23:17;16.60;99.90
78904;DHT22;68291;49.602;8.722;2023-10-09T08:26:18;16.80;99.90
78904;DHT22;68291;49.602;8.722;2023-10-09T08:29:38;16.90;99.90
78904;DHT22;68291;49.602;8.722;2023-10-09T08:32:31;17.00;99.90
78904;DHT22;68291;49.602;8.722;2023-10-09T08:35:35;17.20;99.90
78904;DHT22;68291;49.602;8.722;2023-10-09T08:38:47;17.30;99.90
78904;DHT22;68291;49.602;8.722;2023-10-09T08:41:25;17.40;99.90
78904;DHT22;68291;49.602;8.722;2023-10-09T08:44:12;17.50;99.90
78904;DHT22;68291;49.602;8.722;2023-10-09T08:50:40;17.80;99.90
78904;DHT22;68291;49.602;8.722;2023-10-09T08:53:22;18.00;99.90
78904;DHT22;68291;49.602;8.722;2023-10-09T08:56:12;18.10;99.90
78904;DHT22;68291;49.602;8.722;2023-10-09T08:59:20;18.30;99.90
78904;DHT22;68291;49.602;8.722;2023-10-09T09:02:35;18.40;99.90
78904;DHT22;68291;49.602;8.722;2023-10-09T09:08:35;18.80;99.90
78904;DHT22;68291;49.602;8.722;2023-10-09T09:11:13;18.90;99.90
78904;DHT22;68291;49.602;8.722;2023-10-09T09:14:08;19.10;99.90
78904;DHT22;68291;49.602;8.722;2023-10-09T09:17:04;19.20;99.90
78904;DHT22;68291;49.602;8.722;2023-10-09T09:20:20;19.40;99.90
78904;DHT22;68291;49.602;8.722;2023-10-09T09:23:17;19.50;99.90
78904;DHT22;68291;49.602;8.722;2023-10-09T09:26:36;19.70;99.90
78904;DHT22;68291;49.602;8.722;2023-10-09T09:29:39;19.80;99.90
78904;DHT22;68291;49.602;8.722;2023-10-09T09:32:31;20.00;99.90
78904;DHT22;68291;49.602;8.722;2023-10-09T09:35:12;20.10;99.90
78904;DHT22;68291;49.602;8.722;2023-10-09T09:38:03;20.20;99.90
78904;DHT22;68291;49.602;8.722;2023-10-09T09:41:16;20.20;99.90
78904;DHT22;68291;49.602;8.722;2023-10-09T09:44:24;20.30;99.90
78904;DHT22;68291;49.602;8.722;2023-10-09T09:47:23;20.40;99.90
78904;DHT22;68291;49.602;8.722;2023-10-09T09:50:32;20.50;99.90
78904;DHT22;68291;49.602;8.722;2023-10-09T09:53:06;20.60;99.90
78904;DHT22;68291;49.602;8.722;2023-10-09T09:55:51;20.70;99.90
78904;DHT22;68291;49.602;8.722;2023-10-09T10:01:38;20.70;99.90
78904;DHT22;68291;49.602;8.722;2023-10-09T10:04:28;20.80;99.90
78904;DHT22;68291;49.602;8.722;2023-10-09T10:07:12;20.80;99.90
78904;DHT22;68291;49.602;8.722;2023-10-09T10:10:38;20.80;99.90
78904;DHT22;68291;49.602;8.722;2023-10-09T10:13:55;20.80;99.90
78904;DHT22;68291;49.602;8.722;2023-10-09T10:17:08;20.90;99.90
78904;DHT22;68291;49.602;8.722;2023-10-09T10:20:06;20.90;99.90
78904;DHT22;68291;49.602;8.722;2023-10-09T10:23:18;20.90;99.90
78904;DHT22;68291;49.602;8.722;2023-10-09T10:26:17;20.90;99.90
78904;DHT22;68291;49.602;8.722;2023-10-09T10:29:16;20.90;99.90
78904;DHT22;68291;49.602;8.722;2023-10-09T10:35:30;20.90;99.90
78904;DHT22;68291;49.602;8.722;2023-10-09T10:38:32;20.90;99.90
78904;DHT22;68291;49.602;8.722;2023-10-09T10:41:13;20.90;99.90
78904;DHT22;68291;49.602;8.722;2023-10-09T10:44:26;21.00;99.90
78904;DHT22;68291;49.602;8.722;2023-10-09T10:47:28;21.10;99.90
78904;DHT22;68291;49.602;8.722;2023-10-09T10:50:18;21.20;99.90
78904;DHT22;68291;49.602;8.722;2023-10-09T10:56:45;21.50;99.90
78904;DHT22;68291;49.602;8.722;2023-10-09T10:59:31;21.70;99.90
78904;DHT22;68291;49.602;8.722;2023-10-09T11:02:28;21.80;99.90
78904;DHT22;68291;49.602;8.722;2023-10-09T11:05:30;22.00;99.90
78904;DHT22;68291;49.602;8.722;2023-10-09T11:08:11;22.10;99.90
78904;DHT22;68291;49.602;8.722;2023-10-09T11:11:16;22.20;99.90
78904;DHT22;68291;49.602;8.722;2023-10-09T11:13:50;22.40;99.90
78904;DHT22;68291;49.602;8.722;2023-10-09T11:16:29;22.40;99.90
78904;DHT22;68291;49.602;8.722;2023-10-09T11:19:26;22.60;99.90
78904;DHT22;68291;49.602;8.722;2023-10-09T11:22:09;22.70;99.90
78904;DHT22;68291;49.602;8.722;2023-10-09T11:25:15;22.70;99.90
78904;DHT22;68291;49.602;8.722;2023-10-09T11:28:18;22.70;99.90
78904;DHT22;68291;49.602;8.722;2023-10-09T11:31:59;22.80;99.90
78904;DHT22;68291;49.602;8.722;2023-10-09T11:34:46;22.80;99.90
78904;DHT22;68291;49.602;8.722;2023-10-09T11:37:39;22.80;99.90
78904;DHT22;68291;49.602;8.722;2023-10-09T11:40:44;22.80;99.90
78904;DHT22;68291;49.602;8.722;2023-10-09T11:43:51;22.80;99.90
78904;DHT22;68291;49.602;8.722;2023-10-09T11:46:38;22.90;99.90
78904;DHT22;68291;49.602;8.722;2023-10-09T11:49:31;22.90;99.90
78904;DHT22;68291;49.602;8.722;2023-10-09T11:52:25;23.00;99.90
78904;DHT22;68291;49.602;8.722;2023-10-09T11:55:31;23.10;99.90
78904;DHT22;68291;49.602;8.722;2023-10-09T11:58:34;23.10;99.90
78904;DHT22;68291;49.602;8.722;2023-10-09T12:01:35;23.20;99.90
78904;DHT22;68291;49.602;8.722;2023-10-09T12:04:16;23.30;99.90
78904;DHT22;68291;49.602;8.722;2023-10-09T12:07:29;23.30;99.90
78904;DHT22;68291;49.602;8.722;2023-10-09T12:10:20;23.40;99.90
78904;DHT22;68291;49.602;8.722;2023-10-09T12:13:04;23.50;99.90
78904;DHT22;68291;49.602;8.722;2023-10-09T12:15:55;23.50;99.90
78904;DHT22;68291;49.602;8.722;2023-10-09T12:19:14;23.70;99.90
78904;DHT22;68291;49.602;8.722;2023-10-09T12:21:53;23.80;99.90
78904;DHT22;68291;49.602;8.722;2023-10-09T12:24:38;23.90;99.90
78904;DHT22;68291;49.602;8.722;2023-10-09T12:27:23;24.00;99.90
78904;DHT22;68291;49.602;8.722;2023-10-09T12:30:10;24.10;99.90
78904;DHT22;68291;49.602;8.722;2023-10-09T12:33:26;24.20;99.90
78904;DHT22;68291;49.602;8.722;2023-10-09T12:36:11;24.30;99.90
78904;DHT22;68291;49.602;8.722;2023-10-09T12:39:16;24.40;99.90
78904;DHT22;68291;49.602;8.722;2023-10-09T12:41:56;24.60;99.90
78904;DHT22;68291;49.602;8.722;2023-10-09T12:44:43;24.80;99.90
78904;DHT22;68291;49.602;8.722;2023-10-09T12:47:48;24.90;99.90
78904;DHT22;68291;49.602;8.722;2023-10-09T12:50:50;25.10;99.90
78904;DHT22;68291;49.602;8.722;2023-10-09T12:56:50;25.30;99.90
78904;DHT22;68291;49.602;8.722;2023-10-09T12:59:21;25.40;99.90
78904;DHT22;68291;49.602;8.722;2023-10-09T13:02:07;25.40;99.90
78904;DHT22;68291;49.602;8.722;2023-10-09T13:04:55;25.40;99.90
78904;DHT22;68291;49.602;8.722;2023-10-09T13:07:56;25.50;99.90
78904;DHT22;68291;49.602;8.722;2023-10-09T13:11:01;25.50;99.90
78904;DHT22;68291;49.602;8.722;2023-10-09T13:13:57;25.60;99.90
78904;DHT22;68291;49.602;8.722;2023-10-09T13:16:56;25.60;99.90
78904;DHT22;68291;49.602;8.722;2023-10-09T13:19:41;25.60;99.90
78904;DHT22;68291;49.602;8.722;2023-10-09T13:22:27;25.70;99.90
78904;DHT22;68291;49.602;8.722;2023-10-09T13:25:13;25.80;99.90
78904;DHT22;68291;49.602;8.722;2023-10-09T13:28:05;25.80;99.90
78904;DHT22;68291;49.602;8.722;2023-10-09T13:30:38;25.80;99.90
78904;DHT22;68291;49.602;8.722;2023-10-09T13:33:42;25.90;99.90
78904;DHT22;68291;49.602;8.722;2023-10-09T13:36:58;26.00;99.90
78904;DHT22;68291;49.602;8.722;2023-10-09T13:39:40;26.00;99.90
78904;DHT22;68291;49.602;8.722;2023-10-09T13:42:22;26.00;99.90
78904;DHT22;68291;49.602;8.722;2023-10-09T13:45:17;26.00;99.90
78904;DHT22;68291;49.602;8.722;2023-10-09T13:48:04;26.20;99.90
78904;DHT22;68291;49.602;8.722;2023-10-09T13:51:21;26.30;99.90
78904;DHT22;68291;49.602;8.722;2023-10-09T13:54:24;26.40;99.90
78904;DHT22;68291;49.602;8.722;2023-10-09T13:57:22;26.50;99.90
78904;DHT22;68291;49.602;8.722;2023-10-09T14:00:13;26.60;99.90
78904;DHT22;68291;49.602;8.722;2023-10-09T14:03:00;26.70;99.90
78904;DHT22;68291;49.602;8.722;2023-10-09T14:05:44;26.80;99.90
78904;DHT22;68291;49.602;8.722;2023-10-09T14:08:32;26.80;99.90
78904;DHT22;68291;49.602;8.722;2023-10-09T14:11:18;26.80;99.90
78904;DHT22;68291;49.602;8.722;2023-10-09T14:14:00;26.80;99.90
78904;DHT22;68291;49.602;8.722;2023-10-09T14:16:56;26.80;99.90
78904;DHT22;68291;49.602;8.722;2023-10-09T14:19:36;26.70;99.90
78904;DHT22;68291;49.602;8.722;2023-10-09T14:22:35;26.60;99.90
78904;DHT22;68291;49.602;8.722;2023-10-09T14:25:17;26.50;99.90
78904;DHT22;68291;49.602;8.722;2023-10-09T14:27:50;26.50;99.90
78904;DHT22;68291;49.602;8.722;2023-10-09T14:30:24;26.40;99.90
78904;DHT22;68291;49.602;8.722;2023-10-09T14:33:06;26.40;99.90
78904;DHT22;68291;49.602;8.722;2023-10-09T14:35:44;26.40;99.90
78904;DHT22;68291;49.602;8.722;2023-10-09T14:38:22;26.40;99.90
78904;DHT22;68291;49.602;8.722;2023-10-09T14:41:01;26.40;99.90
78904;DHT22;68291;49.602;8.722;2023-10-09T14:43:40;26.40;99.90
78904;DHT22;68291;49.602;8.722;2023-10-09T14:46:19;26.50;99.90
78904;DHT22;68291;49.602;8.722;2023-10-09T14:48:58;26.60;99.90
78904;DHT22;68291;49.602;8.722;2023-10-09T14:51:34;26.80;99.90
78904;DHT22;68291;49.602;8.722;2023-10-09T14:54:14;26.90;99.90
78904;DHT22;68291;49.602;8.722;2023-10-09T14:57:30;27.00;99.90
78904;DHT22;68291;49.602;8.722;2023-10-09T15:00:26;27.20;99.90
78904;DHT22;68291;49.602;8.722;2023-10-09T15:03:13;27.40;99.90
78904;DHT22;68291;49.602;8.722;2023-10-09T15:09:46;27.70;99.90
78904;DHT22;68291;49.602;8.722;2023-10-09T15:12:19;27.70;99.90
78904;DHT22;68291;49.602;8.722;2023-10-09T15:15:06;27.70;99.90
78904;DHT22;68291;49.602;8.722;2023-10-09T15:17:51;27.60;99.90
78904;DHT22;68291;49.602;8.722;2023-10-09T15:20:29;27.50;99.90
78904;DHT22;68291;49.602;8.722;2023-10-09T15:23:25;27.40;99.90
78904;DHT22;68291;49.602;8.722;2023-10-09T15:26:24;27.20;99.90
78904;DHT22;68291;49.602;8.722;2023-10-09T15:29:10;27.00;99.90
78904;DHT22;68291;49.602;8.722;2023-10-09T15:32:11;26.70;99.90
78904;DHT22;68291;49.602;8.722;2023-10-09T15:35:03;26.40;99.90
78904;DHT22;68291;49.602;8.722;2023-10-09T15:37:39;26.10;99.90
78904;DHT22;68291;49.602;8.722;2023-10-09T15:40:32;25.90;99.90
78904;DHT22;68291;49.602;8.722;2023-10-09T15:43:07;25.60;99.90
78904;DHT22;68291;49.602;8.722;2023-10-09T15:45:52;25.30;99.90
78904;DHT22;68291;49.602;8.722;2023-10-09T15:48:44;25.00;99.90
78904;DHT22;68291;49.602;8.722;2023-10-09T15:51:27;24.70;99.90
78904;DHT22;68291;49.602;8.722;2023-10-09T15:54:21;24.50;99.90
78904;DHT22;68291;49.602;8.722;2023-10-09T15:57:31;24.20;99.90
78904;DHT22;68291;49.602;8.722;2023-10-09T16:00:06;24.00;99.90
78904;DHT22;68291;49.602;8.722;2023-10-09T16:03:01;23.80;99.90
78904;DHT22;68291;49.602;8.722;2023-10-09T16:06:09;23.60;99.90
78904;DHT22;68291;49.602;8.722;2023-10-09T16:08:52;23.40;99.90
78904;DHT22;68291;49.602;8.722;2023-10-09T16:11:53;23.20;99.90
78904;DHT22;68291;49.602;8.722;2023-10-09T16:15:14;23.10;99.90
78904;DHT22;68291;49.602;8.722;2023-10-09T16:17:54;22.90;99.90
78904;DHT22;68291;49.602;8.722;2023-10-09T16:20:58;22.70;99.90
78904;DHT22;68291;49.602;8.722;2023-10-09T16:23:54;22.60;99.90
78904;DHT22;68291;49.602;8.722;2023-10-09T16:26:34;22.40;99.90
78904;DHT22;68291;49.602;8.722;2023-10-09T16:29:50;22.30;99.90
78904;DHT22;68291;49.602;8.722;2023-10-09T16:32:46;22.20;99.90
78904;DHT22;68291;49.602;8.722;2023-10-09T16:35:55;22.00;99.90
78904;DHT22;68291;49.602;8.722;2023-10-09T16:38:55;22.00;99.90
78904;DHT22;68291;49.602;8.722;2023-10-09T16:41:56;21.80;99.90
78904;DHT22;68291;49.602;8.722;2023-10-09T16:44:36;21.60;99.90
78904;DHT22;68291;49.602;8.722;2023-10-09T16:48:01;21.50;99.90
78904;DHT22;68291;49.602;8.722;2023-10-09T16:50:47;21.40;99.90
78904;DHT22;68291;49.602;8.722;2023-10-09T16:53:57;21.20;99.90
78904;DHT22;68291;49.602;8.722;2023-10-09T16:56:43;21.10;99.90
78904;DHT22;68291;49.602;8.722;2023-10-09T16:59:42;21.00;99.90
78904;DHT22;68291;49.602;8.722;2023-10-09T17:02:27;20.80;99.90
78904;DHT22;68291;49.602;8.722;2023-10-09T17:05:22;20.70;99.90
78904;DHT22;68291;49.602;8.722;2023-10-09T17:08:08;20.60;99.90
78904;DHT22;68291;49.602;8.722;2023-10-09T17:10:49;20.50;99.90
78904;DHT22;68291;49.602;8.722;2023-10-09T17:13:36;20.40;99.90
78904;DHT22;68291;49.602;8.722;2023-10-09T17:16:38;20.40;99.90
78904;DHT22;68291;49.602;8.722;2023-10-09T17:19:24;20.20;99.90
78904;DHT22;68291;49.602;8.722;2023-10-09T17:22:37;20.20;99.90
78904;DHT22;68291;49.602;8.722;2023-10-09T17:25:13;20.10;99.90
78904;DHT22;68291;49.602;8.722;2023-10-09T17:27:59;20.00;99.90
78904;DHT22;68291;49.602;8.722;2023-10-09T17:31:00;19.90;99.90
78904;DHT22;68291;49.602;8.722;2023-10-09T17:33:48;19.90;99.90
78904;DHT22;68291;49.602;8.722;2023-10-09T17:36:52;19.80;99.90
78904;DHT22;68291;49.602;8.722;2023-10-09T17:40:12;19.80;99.90
78904;DHT22;68291;49.602;8.722;2023-10-09T17:43:04;19.70;99.90
78904;DHT22;68291;49.602;8.722;2023-10-09T17:46:01;19.70;99.90
78904;DHT22;68291;49.602;8.722;2023-10-09T17:48:56;19.60;99.90
78904;DHT22;68291;49.602;8.722;2023-10-09T17:51:44;19.60;99.90
78904;DHT22;68291;49.602;8.722;2023-10-09T17:54:27;19.50;99.90
78904;DHT22;68291;49.602;8.722;2023-10-09T17:57:09;19.50;99.90
78904;DHT22;68291;49.602;8.722;2023-10-09T17:59:55;19.40;99.90
78904;DHT22;68291;49.602;8.722;2023-10-09T18:02:43;19.40;99.90
78904;DHT22;68291;49.602;8.722;2023-10-09T18:05:34;19.30;99.90
78904;DHT22;68291;49.602;8.722;2023-10-09T18:08:29;19.30;99.90
78904;DHT22;68291;49.602;8.722;2023-10-09T18:11:46;19.20;99.90
78904;DHT22;68291;49.602;8.722;2023-10-09T18:14:56;19.10;99.90
78904;DHT22;68291;49.602;8.722;2023-10-09T18:17:33;19.00;99.90
78904;DHT22;68291;49.602;8.722;2023-10-09T18:20:10;19.00;99.90
78904;DHT22;68291;49.602;8.722;2023-10-09T18:22:54;19.00;99.90
78904;DHT22;68291;49.602;8.722;2023-10-09T18:25:34;18.90;99.90
78904;DHT22;68291;49.602;8.722;2023-10-09T18:28:08;18.90;99.90
78904;DHT22;68291;49.602;8.722;2023-10-09T18:31:02;18.80;99.90
78904;DHT22;68291;49.602;8.722;2023-10-09T18:34:01;18.70;99.90
78904;DHT22;68291;49.602;8.722;2023-10-09T18:36:38;18.70;99.90
78904;DHT22;68291;49.602;8.722;2023-10-09T18:39:24;18.60;99.90
78904;DHT22;68291;49.602;8.722;2023-10-09T18:42:11;18.60;99.90
78904;DHT22;68291;49.602;8.722;2023-10-09T18:44:57;18.50;99.90
78904;DHT22;68291;49.602;8.722;2023-10-09T18:47:53;18.50;99.90
78904;DHT22;68291;49.602;8.722;2023-10-09T18:50:29;18.40;99.90
78904;DHT22;68291;49.602;8.722;2023-10-09T18:53:14;18.40;99.90
78904;DHT22;68291;49.602;8.722;2023-10-09T18:55:46;18.30;99.90
78904;DHT22;68291;49.602;8.722;2023-10-09T18:58:43;18.30;99.90
78904;DHT22;68291;49.602;8.722;2023-10-09T19:01:41;18.20;99.90
78904;DHT22;68291;49.602;8.722;2023-10-09T19:08:04;18.20;99.90
78904;DHT22;68291;49.602;8.722;2023-10-09T19:11:06;18.20;99.90
78904;DHT22;68291;49.602;8.722;2023-10-09T19:13:52;18.20;99.90